createdAt,value
2023-01-22T00:00:06.727Z,-2.60
2023-01-22T00:03:16.969Z,-2.60
2023-01-22T00:06:21.981Z,-2.56
2023-01-22T00:09:26.500Z,-2.90
2023-01-22T00:12:31.174Z,-2.64
2023-01-22T00:15:38.669Z,-2.59
2023-01-22T00:18:43.886Z,-2.58
2023-01-22T00:21:48.365Z,-2.39
2023-01-22T00:24:52.861Z,-2.01
2023-01-22T00:27:57.480Z,-2.67
2023-01-22T00:31:03.958Z,-2.27
2023-01-22T00:34:09.135Z,-2.60
2023-01-22T00:37:13.660Z,-2.56
2023-01-22T00:40:22.151Z,-2.95
2023-01-22T00:43:26.723Z,-3.26
2023-01-22T00:46:32.546Z,-3.03
2023-01-22T00:49:37.098Z,-2.87
2023-01-22T00:52:41.576Z,-2.78
2023-01-22T00:56:00.759Z,-2.85
2023-01-22T00:59:10.297Z,-3.13
2023-01-22T01:02:15.445Z,-2.93
2023-01-22T01:05:19.969Z,-3.05
2023-01-22T01:08:26.092Z,-3.14
2023-01-22T01:11:30.794Z,-2.71
2023-01-22T01:14:35.441Z,-2.90
2023-01-22T01:17:41.324Z,-2.73
2023-01-22T01:20:45.843Z,-2.71
2023-01-22T01:23:50.491Z,-2.56
2023-01-22T01:26:55.081Z,-2.67
2023-01-22T01:29:59.627Z,-2.33
2023-01-22T01:33:04.093Z,-2.64
2023-01-22T01:36:13.208Z,-2.43
2023-01-22T01:39:18.340Z,-2.49
2023-01-22T01:42:29.003Z,-2.63
2023-01-22T01:45:34.498Z,-2.36
2023-01-22T01:48:43.566Z,-2.61
2023-01-22T01:51:49.205Z,-2.46
2023-01-22T01:54:57.496Z,-2.70
2023-01-22T01:58:10.335Z,-2.70
2023-01-22T02:01:18.112Z,-2.83
2023-01-22T02:04:23.941Z,-2.92
2023-01-22T02:07:28.574Z,-2.81
2023-01-22T02:10:33.517Z,-2.62
2023-01-22T02:13:42.966Z,-3.32
2023-01-22T02:16:48.463Z,-2.87
2023-01-22T02:19:53.123Z,-2.92
2023-01-22T02:22:57.832Z,-3.23
2023-01-22T02:26:02.309Z,-2.61
2023-01-22T02:29:09.435Z,-3.34
2023-01-22T02:32:14.712Z,-2.90
2023-01-22T02:35:19.360Z,-3.01
2023-01-22T02:38:25.382Z,-2.85
2023-01-22T02:41:30.121Z,-3.34
2023-01-22T02:44:34.783Z,-2.82
2023-01-22T02:47:40.875Z,-2.80
2023-01-22T02:50:45.910Z,-2.79
2023-01-22T02:53:51.090Z,-2.70
2023-01-22T02:56:56.671Z,-2.56
2023-01-22T03:00:01.781Z,-3.01
2023-01-22T03:03:07.817Z,-2.90
2023-01-22T03:06:15.604Z,-2.77
2023-01-22T03:09:20.233Z,-2.63
2023-01-22T03:12:26.421Z,-2.49
2023-01-22T03:15:50.012Z,-2.76
2023-01-22T03:19:14.629Z,-2.59
2023-01-22T03:22:20.335Z,-2.58
2023-01-22T03:25:24.821Z,-2.67
2023-01-22T03:28:30.658Z,-2.66
2023-01-22T03:31:35.372Z,-2.75
2023-01-22T03:34:40.799Z,-2.33
2023-01-22T03:37:45.983Z,-2.70
2023-01-22T03:40:51.049Z,-2.66
2023-01-22T03:43:58.872Z,-2.50
2023-01-22T03:47:08.860Z,-2.84
2023-01-22T03:50:13.672Z,-2.99
2023-01-22T03:53:18.918Z,-2.83
2023-01-22T03:56:24.273Z,-2.87
2023-01-22T03:59:32.073Z,-2.60
2023-01-22T04:02:37.764Z,-2.98
2023-01-22T04:05:53.478Z,-3.17
2023-01-22T04:08:57.990Z,-2.70
2023-01-22T04:12:07.929Z,-2.60
2023-01-22T04:15:12.797Z,-2.49
2023-01-22T04:18:17.634Z,-2.97
2023-01-22T04:21:39.454Z,-2.78
2023-01-22T04:24:46.949Z,-2.85
2023-01-22T04:27:53.423Z,-2.54
2023-01-22T04:30:59.755Z,-2.71
2023-01-22T04:34:17.632Z,-3.14
2023-01-22T04:37:27.384Z,-3.13
2023-01-22T04:40:32.335Z,-2.55
2023-01-22T04:43:38.153Z,-2.53
2023-01-22T04:46:42.714Z,-2.70
2023-01-22T04:49:47.238Z,-2.58
2023-01-22T04:52:54.151Z,-2.57
2023-01-22T04:55:58.782Z,-2.79
2023-01-22T04:59:04.050Z,-2.72
2023-01-22T05:02:08.851Z,-2.67
2023-01-22T05:05:13.702Z,-2.56
2023-01-22T05:08:18.887Z,-2.85
2023-01-22T05:11:23.857Z,-2.58
2023-01-22T05:14:33.030Z,-2.04
2023-01-22T05:17:39.249Z,-2.23
2023-01-22T05:20:43.879Z,-2.31
2023-01-22T05:23:49.471Z,-2.20
2023-01-22T05:26:54.896Z,-2.52
2023-01-22T05:30:07.165Z,-2.61
2023-01-22T05:33:32.465Z,-2.34
2023-01-22T05:36:36.964Z,-2.58
2023-01-22T05:39:52.650Z,-3.02
2023-01-22T05:42:58.053Z,-2.65
2023-01-22T05:46:02.858Z,-3.23
2023-01-22T05:49:36.564Z,-2.74
2023-01-22T05:52:43.109Z,-2.63
2023-01-22T05:55:47.757Z,-2.91
2023-01-22T05:58:53.584Z,-2.76
2023-01-22T06:01:58.363Z,-2.81
2023-01-22T06:05:03.588Z,-3.12
2023-01-22T06:08:08.223Z,-3.11
2023-01-22T06:11:20.402Z,-2.82
2023-01-22T06:14:25.035Z,-3.30
2023-01-22T06:17:33.952Z,-2.88
2023-01-22T06:20:39.489Z,-3.18
2023-01-22T06:23:46.009Z,-2.85
2023-01-22T06:26:51.333Z,-2.99
2023-01-22T06:29:57.332Z,-3.25
2023-01-22T06:33:03.416Z,-3.54
2023-01-22T06:36:08.400Z,-3.23
2023-01-22T06:39:14.741Z,-3.15
2023-01-22T06:42:23.537Z,-2.91
2023-01-22T06:45:28.920Z,-3.10
2023-01-22T06:48:36.362Z,-3.01
2023-01-22T06:51:41.565Z,-3.08
2023-01-22T06:54:49.353Z,-3.19
2023-01-22T06:57:57.652Z,-3.07
2023-01-22T07:01:03.915Z,-3.46
2023-01-22T07:04:08.494Z,-2.92
2023-01-22T07:07:13.258Z,-3.21
2023-01-22T07:10:18.115Z,-3.07
2023-01-22T07:13:24.344Z,-3.30
2023-01-22T07:16:29.062Z,-3.34
2023-01-22T07:19:33.650Z,-3.05
2023-01-22T07:22:38.155Z,-3.29
2023-01-22T07:25:44.592Z,-2.88
2023-01-22T07:28:49.295Z,-2.55
2023-01-22T07:31:55.689Z,-3.44
2023-01-22T07:35:00.329Z,-3.33
2023-01-22T07:38:05.524Z,-2.82
2023-01-22T07:41:24.522Z,-2.98
2023-01-22T07:44:29.855Z,-2.76
2023-01-22T07:47:34.455Z,-2.32
2023-01-22T07:50:40.556Z,-3.28
2023-01-22T07:53:45.179Z,-2.71
2023-01-22T07:56:49.774Z,-2.59
2023-01-22T07:59:54.405Z,-2.60
2023-01-22T08:03:01.309Z,-2.13
2023-01-22T08:06:10.198Z,-1.90
2023-01-22T08:09:21.521Z,-2.73
2023-01-22T08:12:26.008Z,-2.43
2023-01-22T08:15:31.391Z,-2.19
2023-01-22T08:18:36.416Z,-2.12
2023-01-22T08:21:41.123Z,-1.70
2023-01-22T08:24:45.640Z,-2.02
2023-01-22T08:27:50.212Z,-2.03
2023-01-22T08:30:59.760Z,-2.37
2023-01-22T08:34:04.390Z,-1.86
2023-01-22T08:37:10.405Z,-1.93
2023-01-22T08:40:15.414Z,-1.83
2023-01-22T08:43:20.267Z,-1.58
2023-01-22T08:46:24.894Z,-1.82
2023-01-22T08:49:30.831Z,-1.99
2023-01-22T08:52:35.391Z,-1.96
2023-01-22T08:55:39.887Z,-1.82
2023-01-22T08:58:44.389Z,-1.90
2023-01-22T09:01:49.056Z,-2.08
2023-01-22T09:04:55.533Z,-2.20
2023-01-22T09:08:00.089Z,-1.82
2023-01-22T09:11:05.521Z,-1.55
2023-01-22T09:14:10.222Z,-1.71
2023-01-22T09:17:16.264Z,-1.97
2023-01-22T09:20:21.311Z,-1.36
2023-01-22T09:23:25.880Z,-1.89
2023-01-22T09:26:32.246Z,-2.04
2023-01-22T09:29:36.784Z,-2.06
2023-01-22T09:32:41.499Z,-2.20
2023-01-22T09:35:46.087Z,-1.40
2023-01-22T09:38:50.607Z,-0.88
2023-01-22T09:41:58.441Z,-1.26
2023-01-22T09:45:09.483Z,-1.38
2023-01-22T09:48:17.859Z,-0.68
2023-01-22T09:51:22.478Z,-0.71
2023-01-22T09:54:29.356Z,-0.62
2023-01-22T09:57:33.930Z,-0.52
2023-01-22T10:00:41.232Z,-0.47
2023-01-22T10:03:49.341Z,-0.23
2023-01-22T10:06:56.883Z,-0.97
2023-01-22T10:10:16.837Z,-0.45
2023-01-22T10:13:32.237Z,-0.31
2023-01-22T10:16:37.273Z,-0.60
2023-01-22T10:19:45.124Z,-0.36
2023-01-22T10:22:49.755Z,-0.36
2023-01-22T10:26:05.650Z,-0.28
2023-01-22T10:29:14.886Z,-0.12
2023-01-22T10:32:28.341Z,0.12
2023-01-22T10:35:42.715Z,0.15
2023-01-22T10:38:47.256Z,0.03
2023-01-22T10:42:01.627Z,-0.06
2023-01-22T10:45:15.512Z,-0.15
2023-01-22T10:48:20.837Z,-0.18
2023-01-22T10:51:34.833Z,0.97
2023-01-22T10:54:43.772Z,0.28
2023-01-22T10:58:02.859Z,0.36
2023-01-22T11:01:32.610Z,0.41
2023-01-22T11:04:37.661Z,-0.03
2023-01-22T11:07:43.342Z,-0.29
2023-01-22T11:10:50.947Z,-0.30
2023-01-22T11:14:10.187Z,-0.47
2023-01-22T11:17:27.348Z,0.20
2023-01-22T11:20:47.085Z,0.49
2023-01-22T11:23:57.272Z,0.30
2023-01-22T11:27:14.551Z,1.12
2023-01-22T11:30:53.169Z,0.48
2023-01-22T11:34:23.529Z,0.25
2023-01-22T11:37:46.208Z,0.49
2023-01-22T11:40:53.658Z,0.20
2023-01-22T11:43:58.112Z,0.29
2023-01-22T11:47:04.348Z,0.63
2023-01-22T11:50:21.464Z,0.02
2023-01-22T11:53:38.147Z,-0.21
2023-01-22T11:56:48.288Z,0.51
2023-01-22T12:00:25.180Z,0.46
2023-01-22T12:03:41.707Z,-0.08
2023-01-22T12:07:08.000Z,-0.75
2023-01-22T12:10:36.507Z,-0.67
2023-01-22T12:14:03.649Z,-0.54
2023-01-22T12:17:29.518Z,-0.59
2023-01-22T12:21:21.828Z,-0.92
2023-01-22T12:24:44.107Z,-0.78
2023-01-22T12:27:59.985Z,-1.18
2023-01-22T12:31:17.060Z,-2.02
2023-01-22T12:34:34.201Z,-1.48
2023-01-22T12:37:49.709Z,-1.16
2023-01-22T12:41:30.582Z,-0.93
2023-01-22T12:44:47.193Z,-0.84
2023-01-22T12:47:55.882Z,-0.20
2023-01-22T12:51:01.691Z,-0.10
2023-01-22T12:54:21.774Z,1.36
2023-01-22T12:57:37.611Z,0.65
2023-01-22T13:00:42.132Z,1.12
2023-01-22T13:03:58.171Z,0.66
2023-01-22T13:07:20.640Z,1.73
2023-01-22T13:10:30.067Z,1.84
2023-01-22T13:13:36.503Z,2.28
2023-01-22T13:16:41.641Z,2.14
2023-01-22T13:19:49.590Z,1.91
2023-01-22T13:22:55.827Z,2.73
2023-01-22T13:26:00.710Z,5.36
2023-01-22T13:29:18.671Z,4.35
2023-01-22T13:32:23.312Z,2.47
2023-01-22T13:35:27.875Z,3.41
2023-01-22T13:38:35.243Z,2.14
2023-01-22T13:41:40.840Z,2.38
2023-01-22T13:44:51.252Z,3.75
2023-01-22T13:47:56.413Z,2.61
2023-01-22T13:51:05.112Z,2.01
2023-01-22T13:54:19.611Z,1.21
2023-01-22T13:57:24.827Z,1.20
2023-01-22T14:00:29.427Z,1.08
2023-01-22T14:03:34.662Z,1.93
2023-01-22T14:06:49.361Z,0.78
2023-01-22T14:09:55.123Z,0.59
2023-01-22T14:13:05.462Z,0.48
2023-01-22T14:16:10.880Z,0.18
2023-01-22T14:19:15.995Z,-0.29
2023-01-22T14:22:22.424Z,-0.32
2023-01-22T14:25:27.000Z,-1.16
2023-01-22T14:28:32.677Z,-0.71
2023-01-22T14:31:38.469Z,-0.95
2023-01-22T14:34:43.034Z,-0.90
2023-01-22T14:37:48.069Z,-0.88
2023-01-22T14:40:52.905Z,-0.41
2023-01-22T14:43:57.436Z,-1.11
2023-01-22T14:47:04.198Z,-1.52
2023-01-22T14:50:09.684Z,-1.10
2023-01-22T14:53:15.344Z,-0.88
2023-01-22T14:56:19.953Z,-1.17
2023-01-22T14:59:24.520Z,-1.26
2023-01-22T15:02:29.097Z,-1.36
2023-01-22T15:05:35.567Z,-1.32
2023-01-22T15:08:40.560Z,-1.67
2023-01-22T15:11:45.350Z,-1.69
2023-01-22T15:14:49.971Z,-1.54
2023-01-22T15:17:57.041Z,-1.47
2023-01-22T15:21:04.020Z,-2.18
2023-01-22T15:24:09.133Z,-2.07
2023-01-22T15:27:18.445Z,-1.81
2023-01-22T15:30:24.740Z,-2.21
2023-01-22T15:33:29.358Z,-2.06
2023-01-22T15:36:35.929Z,-1.93
2023-01-22T15:39:40.886Z,-2.22
2023-01-22T15:42:45.383Z,-2.06
2023-01-22T15:45:49.995Z,-2.56
2023-01-22T15:48:54.920Z,-2.21
2023-01-22T15:51:59.453Z,-2.57
2023-01-22T15:55:04.429Z,-2.45
2023-01-22T15:58:09.000Z,-2.62
2023-01-22T16:01:13.487Z,-2.62
2023-01-22T16:04:18.020Z,-2.77
2023-01-22T16:07:22.561Z,-2.45
2023-01-22T16:10:27.107Z,-2.51
2023-01-22T16:13:34.093Z,-2.64
2023-01-22T16:16:38.747Z,-2.77
2023-01-22T16:19:43.323Z,-2.32
2023-01-22T16:22:47.947Z,-2.13
2023-01-22T16:25:52.533Z,-2.19
2023-01-22T16:28:59.141Z,-2.16
2023-01-22T16:32:03.914Z,-2.19
2023-01-22T16:35:11.961Z,-2.05
2023-01-22T16:38:16.908Z,-2.12
2023-01-22T16:41:33.099Z,-2.08
2023-01-22T16:44:37.623Z,-2.26
2023-01-22T16:47:43.371Z,-2.66
2023-01-22T16:50:48.152Z,-2.27
2023-01-22T16:53:53.098Z,-2.24
2023-01-22T16:57:00.059Z,-2.30
2023-01-22T17:00:05.894Z,-2.33
2023-01-22T17:03:10.479Z,-2.25
2023-01-22T17:06:31.886Z,-2.82
2023-01-22T17:09:36.404Z,-2.25
2023-01-22T17:12:41.416Z,-2.52
2023-01-22T17:15:48.557Z,-2.28
2023-01-22T17:18:54.788Z,-2.80
2023-01-22T17:21:59.412Z,-2.75
2023-01-22T17:25:05.366Z,-2.78
2023-01-22T17:28:09.952Z,-2.51
2023-01-22T17:31:17.684Z,-2.49
2023-01-22T17:34:23.219Z,-2.50
2023-01-22T17:37:27.693Z,-2.34
2023-01-22T17:40:32.232Z,-2.45
2023-01-22T17:43:38.570Z,-2.26
2023-01-22T17:46:43.178Z,-2.08
2023-01-22T17:49:49.333Z,-2.35
2023-01-22T17:52:55.716Z,-2.29
2023-01-22T17:56:14.468Z,-1.97
2023-01-22T17:59:20.602Z,-2.05
2023-01-22T18:02:25.136Z,-2.57
2023-01-22T18:05:30.039Z,-2.81
2023-01-22T18:08:39.168Z,-2.91
2023-01-22T18:11:43.676Z,-2.39
2023-01-22T18:14:48.250Z,-2.49
2023-01-22T18:17:52.839Z,-2.48
2023-01-22T18:20:57.636Z,-2.43
2023-01-22T18:24:04.214Z,-2.49
2023-01-22T18:27:10.335Z,-2.66
2023-01-22T18:30:15.362Z,-2.24
2023-01-22T18:33:21.140Z,-2.37
2023-01-22T18:36:28.060Z,-2.32
2023-01-22T18:39:35.753Z,-2.25
2023-01-22T18:42:40.224Z,-2.28
2023-01-22T18:45:45.149Z,-2.27
2023-01-22T18:48:54.457Z,-2.42
2023-01-22T18:52:00.828Z,-2.20
2023-01-22T18:55:05.961Z,-2.24
2023-01-22T18:58:21.434Z,-2.34
2023-01-22T19:01:28.805Z,-2.50
2023-01-22T19:04:33.671Z,-2.51
2023-01-22T19:07:38.756Z,-1.99
2023-01-22T19:10:43.354Z,-2.24
2023-01-22T19:13:48.727Z,-2.21
2023-01-22T19:16:53.778Z,-2.03
2023-01-22T19:19:58.306Z,-2.15
2023-01-22T19:23:03.747Z,-2.03
2023-01-22T19:26:12.912Z,-2.02
2023-01-22T19:29:17.895Z,-1.95
2023-01-22T19:32:27.745Z,-2.12
2023-01-22T19:35:32.354Z,-2.25
2023-01-22T19:38:37.830Z,-2.25
2023-01-22T19:41:42.791Z,-2.32
2023-01-22T19:44:47.385Z,-2.05
2023-01-22T19:47:54.553Z,-2.21
2023-01-22T19:51:04.279Z,-2.08
2023-01-22T19:54:08.959Z,-2.03
2023-01-22T19:57:15.274Z,-1.74
2023-01-22T20:00:19.911Z,-0.97
2023-01-22T20:03:26.310Z,-2.12
2023-01-22T20:06:30.852Z,-2.04
2023-01-22T20:09:36.414Z,-1.64
2023-01-22T20:12:43.208Z,-2.47
2023-01-22T20:15:47.722Z,-2.02
2023-01-22T20:18:53.609Z,-2.18
2023-01-22T20:21:59.411Z,-1.77
2023-01-22T20:25:04.392Z,-2.09
2023-01-22T20:28:10.694Z,-1.84
2023-01-22T20:31:19.755Z,-2.03
2023-01-22T20:34:24.742Z,-1.86
2023-01-22T20:37:29.368Z,-1.90
2023-01-22T20:40:34.772Z,-2.19
2023-01-22T20:43:41.471Z,-1.60
2023-01-22T20:46:48.606Z,-1.91
2023-01-22T20:49:53.201Z,-1.95
2023-01-22T20:52:57.773Z,-1.71
2023-01-22T20:56:08.550Z,-1.91
2023-01-22T20:59:17.204Z,-1.88
2023-01-22T21:02:21.923Z,-1.88
2023-01-22T21:05:27.090Z,-1.83
2023-01-22T21:08:31.675Z,-1.76
2023-01-22T21:11:38.452Z,-1.75
2023-01-22T21:14:43.172Z,-1.63
2023-01-22T21:17:47.681Z,-1.71
2023-01-22T21:20:52.394Z,-1.63
2023-01-22T21:23:57.775Z,-1.64
2023-01-22T21:27:02.667Z,-1.84
2023-01-22T21:30:08.067Z,-1.87
2023-01-22T21:33:12.562Z,-1.86
2023-01-22T21:36:18.407Z,-2.01
2023-01-22T21:39:25.209Z,-1.79
2023-01-22T21:42:48.277Z,-2.01
2023-01-22T21:46:11.453Z,-1.62
2023-01-22T21:49:17.373Z,-2.12
2023-01-22T21:52:22.237Z,-1.75
2023-01-22T21:55:26.870Z,-1.58
2023-01-22T21:58:31.439Z,-1.49
2023-01-22T22:01:36.806Z,-1.71
2023-01-22T22:04:41.920Z,-1.67
2023-01-22T22:07:46.455Z,-1.78
2023-01-22T22:10:52.390Z,-1.80
2023-01-22T22:13:56.997Z,-1.72
2023-01-22T22:17:01.661Z,-1.52
2023-01-22T22:20:06.763Z,-1.74
2023-01-22T22:23:11.246Z,-1.57
2023-01-22T22:26:15.793Z,-1.43
2023-01-22T22:29:20.269Z,-1.46
2023-01-22T22:32:24.835Z,-1.29
2023-01-22T22:35:30.385Z,-1.46
2023-01-22T22:38:35.673Z,-1.59
2023-01-22T22:41:40.215Z,-1.72
2023-01-22T22:44:44.775Z,-1.70
2023-01-22T22:47:49.275Z,-1.61
2023-01-22T22:50:55.589Z,-1.82
2023-01-22T22:54:03.580Z,-1.38
2023-01-22T22:57:08.192Z,-1.87
2023-01-22T23:00:13.203Z,-2.01
2023-01-22T23:03:17.742Z,-1.74
2023-01-22T23:06:26.261Z,-1.64
2023-01-22T23:09:45.881Z,-1.20
2023-01-22T23:12:50.471Z,-1.34
2023-01-22T23:15:59.481Z,-1.53
2023-01-22T23:19:07.455Z,-1.69
2023-01-22T23:22:11.981Z,-1.34
2023-01-22T23:25:17.031Z,-1.72
2023-01-22T23:28:21.630Z,-1.51
2023-01-22T23:31:27.507Z,-1.25
2023-01-22T23:34:32.083Z,-1.35
2023-01-22T23:37:36.641Z,-1.72
2023-01-22T23:40:41.186Z,-1.67
2023-01-22T23:43:46.279Z,-1.67
2023-01-22T23:46:52.567Z,-1.58
2023-01-22T23:49:58.308Z,-2.06
2023-01-22T23:53:02.861Z,-1.87
2023-01-22T23:56:08.073Z,-1.62
2023-01-22T23:59:13.024Z,-1.75
